NCAR-RAP Real-Time Weather Data

Output produced by METARs form (08 May 2021  02:23 UTC)
found at http://weather.rap.ucar.edu/surface/
 
KBKW 080151Z AUTO 20003KT 10SM CLR 06/00 A2996 RMK AO2 SLP155 T00560000 TSNO
KBKW 080051Z AUTO 29005KT 10SM CLR 08/M01 A2996 RMK AO2 SLP150 T00831006 TSNO
KBKW 072351Z AUTO 31009G19KT 10SM FEW055 10/M02 A2995 RMK AO2 SLP146 60000 T01001017 10128 20083 58002 TSNO
KBKW 072251Z AUTO 32009KT 10SM SCT065 10/M01 A2996 RMK AO2 SLP147 T01001011 TSNO
KBKW 072151Z AUTO 31014G22KT 10SM FEW060 FEW075 12/M02 A2996 RMK AO2 PK WND 31026/2110 SLP145 T01171017 TSNO
KBKW 072051Z AUTO 30014G21KT 10SM SCT060 BKN075 11/M02 A2996 RMK AO2 PK WND 32029/2001 SLP146 60000 T01111017 50001 TSNO
KBKW 071951Z AUTO 33017G26KT 10SM FEW050 SCT060 BKN075 12/00 A2996 RMK AO2 PK WND 33027/1852 SLP145 T01170000 TSNO
KBKW 071851Z AUTO 32016G26KT 10SM SCT049 BKN060 BKN070 11/01 A2997 RMK AO2 PK WND 31026/1849 RAB1754E08 SLP149 P0000 T01060011 TSNO
KBKW 071751Z AUTO 33009KT 10SM FEW022 SCT044 BKN055 09/06 A2996 RMK AO2 RAE00B25E39 SLP149 P0002 60009 T00940061 10100 20056 50006 TSNO
KBKW 071740Z AUTO 31008KT 10SM SCT023 SCT034 BKN045 09/06 A2996 RMK AO2 RAE00B25E39 CIG 037 RWY19 P0002 T00890056 TSNO
KBKW 071730Z AUTO 30011G23KT 3SM RA SCT021 BKN029 OVC045 07/04 A2997 RMK AO2 VIS 1 1/2 RWY19 RAE00B25 P0002 T00670039 TSNO
KBKW 071658Z AUTO 30012G17KT 10SM -RA SCT015 SCT031 BKN055 08/06 A2996 RMK AO2 P0000 T00830061 TSNO
KBKW 071651Z AUTO 29013G18KT 8SM -RA FEW012 BKN029 OVC070 07/04 A2997 RMK AO2 RAE24B47 SLP156 P0001 T00670044 TSNO
KBKW 071627Z AUTO 30008G16KT 10SM FEW014 BKN050 OVC070 07/06 A2997 RMK AO2 RAE24 P0001 T00720056 TSNO
KBKW 071605Z AUTO 30018G25KT 7SM -RA SCT010 BKN015 OVC028 06/04 A2997 RMK AO2 P0000 T00610044 TSNO
KBKW 071551Z AUTO 30011G18KT 10SM -RA BKN012 OVC020 06/05 A2996 RMK AO2 VIS 2 RWY19 RAB08 SLP155 P0004 T00610050 TSNO
KBKW 071451Z AUTO 30010KT 10SM FEW012 OVC029 07/04 A2994 RMK AO2 RAE04 SLP142 P0000 60002 T00720044 53004 TSNO
KBKW 071432Z AUTO 29005KT 10SM SCT011 BKN019 OVC036 07/06 A2994 RMK AO2 RAE04 P0000 T00720056 TSNO
KBKW 071418Z AUTO 29009KT 10SM FEW006 BKN010 OVC027 08/06 A2993 RMK AO2 RAE04 CIG 008V014 P0000 T00780061 TSNO
KBKW 071351Z AUTO 26004KT 8SM -RA BKN009 OVC016 07/06 A2993 RMK AO2 RAE13B37 CIG 005V012 SLP138 P0000 T00670056 TSNO
KBKW 071319Z AUTO 28006KT 10SM FEW008 BKN012 OVC018 07/06 A2993 RMK AO2 RAE13 P0000 T00670056 TSNO
KBKW 071251Z AUTO 25005KT 10SM -RA FEW007 BKN023 OVC039 06/06 A2993 RMK AO2 RAE11B14 SLP137 P0002 T00610056 TSNO
KBKW 071213Z AUTO 26005KT 10SM FEW009 BKN027 OVC034 06/05 A2992 RMK AO2 RAE11 P0000 T00610050 TSNO
KBKW 071151Z AUTO 28008KT 6SM -RA BR SCT011 BKN025 OVC032 06/05 A2992 RMK AO2 RAE1059B25 SLP132 P0003 60003 70003 T00610050 10078 20056 53007 TSNO
KBKW 071135Z AUTO 29006KT 7SM -RA BKN012 OVC023 06/04 A2992 RMK AO2 RAE1059B25 P0000 T00610044 TSNO
KBKW 071126Z AUTO 27006KT 10SM -RA SCT013 BKN023 OVC039 07/04 A2992 RMK AO2 RAE1059B25 P0000 T00670039 TSNO
KBKW 071051Z AUTO 25005KT 10SM -RA OVC039 07/03 A2991 RMK AO2 RAB42 SLP123 P0000 T00670028 TSNO